Time;durP1;ratioP1;P1;durP2;ratioP2;P2;SDS_P1;SDS_P2;PMS_P1;PMS_P2;Temp;Humidity;BMP_temperature;BMP_pressure;BME280_temperature;BME280_humidity;BME280_pressure;Samples;Min_cycle;Max_cycle;Signal;HPM_P1;HPM_P2
2023/03/06 00:00:33;;;;;;;10.23;3.57;;;;;;;;;;5031746;28;20031;-78
2023/03/06 00:02:58;;;;;;;8.07;3.23;;;;;;;;;;5030479;28;20350;-78
2023/03/06 00:05:25;;;;;;;14.73;3.50;;;;;;;;;;5031906;28;20109;-78
2023/03/06 00:07:50;;;;;;;7.70;3.03;;;;;;;;;;5032399;28;20057;-78
2023/03/06 00:10:22;;;;;;;6.13;2.67;;;;;;;;;;5030720;28;20036;-79
2023/03/06 00:12:50;;;;;;;5.78;3.00;;;;;;;;;;5016729;28;20481;-79
2023/03/06 00:15:16;;;;;;;7.03;2.77;;;;;;;;;;5050903;28;20116;-79
2023/03/06 00:17:41;;;;;;;7.17;2.90;;;;;;;;;;5051894;28;20056;-79
2023/03/06 00:20:09;;;;;;;12.70;3.60;;;;;;;;;;5052022;28;20032;-80
2023/03/06 00:22:37;;;;;;;5.93;3.10;;;;;;;;;;5050707;28;20480;-79
2023/03/06 00:25:04;;;;;;;4.77;2.83;;;;;;;;;;5011992;28;20057;-79
2023/03/06 00:27:31;;;;;;;6.33;3.00;;;;;;;;;;5010239;28;20520;-78
2023/03/06 00:29:59;;;;;;;6.90;3.47;;;;;;;;;;5028732;28;20121;-78
2023/03/06 00:32:25;;;;;;;7.13;3.70;;;;;;;;;;5031112;28;20420;-78
2023/03/06 00:34:52;;;;;;;5.50;2.93;;;;;;;;;;5031205;28;20029;-81
2023/03/06 00:37:18;;;;;;;6.87;3.00;;;;;;;;;;5030907;28;20426;-79
2023/03/06 00:39:43;;;;;;;6.10;3.20;;;;;;;;;;5030717;28;20107;-78
2023/03/06 00:42:09;;;;;;;7.20;3.67;;;;;;;;;;5028789;28;20037;-77
2023/03/06 00:44:35;;;;;;;7.50;3.40;;;;;;;;;;5030820;28;20612;-79
2023/03/06 00:47:00;;;;;;;8.57;3.57;;;;;;;;;;5030224;28;20112;-80
2023/03/06 00:49:26;;;;;;;6.23;3.63;;;;;;;;;;5031725;28;20029;-79
2023/03/06 00:51:51;;;;;;;8.33;4.20;;;;;;;;;;5031944;28;20361;-78
2023/03/06 00:54:17;;;;;;;6.10;2.80;;;;;;;;;;5030236;28;20072;-78
2023/03/06 00:56:42;;;;;;;6.90;3.73;;;;;;;;;;5028988;28;20367;-79
2023/03/06 00:59:09;;;;;;;7.87;3.70;;;;;;;;;;5029385;28;20472;-79
2023/03/06 01:01:35;;;;;;;7.00;3.37;;;;;;;;;;5031064;28;20040;-79
2023/03/06 01:04:00;;;;;;;7.83;3.67;;;;;;;;;;5029688;28;20037;-79
2023/03/06 01:06:26;;;;;;;12.93;3.60;;;;;;;;;;5030066;28;20029;-80
2023/03/06 01:08:51;;;;;;;7.80;3.70;;;;;;;;;;5030569;28;20445;-80
2023/03/06 01:11:17;;;;;;;11.93;3.73;;;;;;;;;;5029675;28;20026;-79
2023/03/06 01:13:43;;;;;;;5.30;3.50;;;;;;;;;;5036268;28;20028;-80
2023/03/06 01:16:12;;;;;;;6.97;3.77;;;;;;;;;;5051664;28;20033;-81
2023/03/06 01:18:37;;;;;;;10.83;3.70;;;;;;;;;;5052037;28;20024;-80
2023/03/06 01:21:04;;;;;;;9.00;4.30;;;;;;;;;;5049884;28;20032;-79
2023/03/06 01:23:29;;;;;;;7.57;3.87;;;;;;;;;;5048340;28;20041;-78
2023/03/06 01:25:55;;;;;;;9.63;4.03;;;;;;;;;;5050310;28;20082;-79
2023/03/06 01:28:21;;;;;;;8.77;4.23;;;;;;;;;;5047918;28;20033;-80
2023/03/06 01:30:46;;;;;;;7.27;3.53;;;;;;;;;;5030592;28;20053;-79
2023/03/06 01:33:12;;;;;;;13.23;4.00;;;;;;;;;;5031020;28;20044;-77
2023/03/06 01:35:38;;;;;;;9.97;4.30;;;;;;;;;;5031014;28;20123;-79
2023/03/06 01:38:03;;;;;;;11.70;4.40;;;;;;;;;;5030375;28;20287;-79
2023/03/06 01:40:33;;;;;;;8.70;4.87;;;;;;;;;;5014267;28;20130;-79
2023/03/06 01:43:25;;;;;;;10.17;4.33;;;;;;;;;;5031140;28;20060;-79
2023/03/06 01:45:50;;;;;;;8.77;4.10;;;;;;;;;;5032559;28;20033;-79
2023/03/06 01:48:18;;;;;;;8.23;4.37;;;;;;;;;;5030888;28;20029;-78
2023/03/06 01:50:44;;;;;;;10.20;3.90;;;;;;;;;;5050804;28;20037;-79
2023/03/06 01:53:11;;;;;;;10.00;5.20;;;;;;;;;;5050367;28;20035;-79
2023/03/06 01:55:36;;;;;;;8.60;4.37;;;;;;;;;;5049770;28;20036;-78
2023/03/06 01:58:05;;;;;;;9.27;4.27;;;;;;;;;;5051731;28;20029;-80
2023/03/06 02:00:31;;;;;;;9.47;4.10;;;;;;;;;;5032658;28;20037;-79
2023/03/06 02:03:25;;;;;;;10.63;4.90;;;;;;;;;;5031972;28;20025;-80
2023/03/06 02:05:51;;;;;;;10.33;4.43;;;;;;;;;;5031154;28;20057;-79
2023/03/06 02:08:19;;;;;;;7.70;3.93;;;;;;;;;;5030775;28;20032;-78
2023/03/06 02:11:09;;;;;;;9.47;4.93;;;;;;;;;;5050660;28;20547;-81
2023/03/06 02:13:36;;;;;;;9.37;3.90;;;;;;;;;;5050482;28;20033;-78
2023/03/06 02:16:03;;;;;;;12.63;5.40;;;;;;;;;;5051378;28;20422;-79
2023/03/06 02:18:29;;;;;;;11.87;4.87;;;;;;;;;;5048640;28;20063;-79
2023/03/06 02:20:58;;;;;;;14.07;5.07;;;;;;;;;;5049695;28;20091;-79
2023/03/06 02:23:29;;;;;;;10.27;4.60;;;;;;;;;;5050853;28;20029;-79
2023/03/06 02:25:55;;;;;;;11.07;4.40;;;;;;;;;;5049561;28;20033;-80
2023/03/06 02:28:22;;;;;;;11.77;5.00;;;;;;;;;;5050316;28;20028;-80
2023/03/06 02:30:51;;;;;;;7.70;4.27;;;;;;;;;;5050500;28;20100;-79
2023/03/06 02:33:19;;;;;;;10.00;3.90;;;;;;;;;;5051137;28;20484;-80
2023/03/06 02:36:03;;;;;;;11.97;5.10;;;;;;;;;;5034407;28;20034;-80
2023/03/06 02:38:36;;;;;;;12.30;4.50;;;;;;;;;;5034087;28;20033;-79
2023/03/06 02:41:05;;;;;;;16.10;4.63;;;;;;;;;;5034100;28;20071;-80
2023/03/06 02:43:35;;;;;;;11.07;4.50;;;;;;;;;;5032768;28;20030;-78
2023/03/06 02:46:01;;;;;;;13.13;4.50;;;;;;;;;;5033603;28;20033;-78
2023/03/06 02:48:26;;;;;;;12.00;4.47;;;;;;;;;;5033950;28;20025;-78
2023/03/06 02:50:51;;;;;;;10.80;5.37;;;;;;;;;;5033922;28;20052;-78
2023/03/06 02:53:18;;;;;;;13.27;5.27;;;;;;;;;;5034165;28;20243;-78
2023/03/06 02:55:45;;;;;;;12.83;4.60;;;;;;;;;;5033724;28;20419;-78
2023/03/06 02:58:11;;;;;;;11.67;5.07;;;;;;;;;;5033427;28;20034;-79
2023/03/06 03:00:36;;;;;;;13.93;5.33;;;;;;;;;;5049716;28;20409;-77
2023/03/06 03:03:03;;;;;;;8.57;4.50;;;;;;;;;;5053556;28;20037;-78
2023/03/06 03:05:29;;;;;;;8.93;4.20;;;;;;;;;;5053720;28;20048;-80
2023/03/06 03:07:54;;;;;;;11.70;4.80;;;;;;;;;;5051943;28;20107;-78
2023/03/06 03:10:20;;;;;;;12.40;5.17;;;;;;;;;;5053170;28;20029;-78
2023/03/06 03:12:45;;;;;;;10.10;4.43;;;;;;;;;;5052320;28;20047;-79
2023/03/06 03:15:11;;;;;;;16.03;5.33;;;;;;;;;;5053445;28;20381;-79
2023/03/06 03:17:39;;;;;;;13.60;4.70;;;;;;;;;;5053167;28;20063;-78
2023/03/06 03:20:07;;;;;;;11.33;5.00;;;;;;;;;;5051585;28;20033;-78
2023/03/06 03:22:33;;;;;;;11.30;5.90;;;;;;;;;;5052959;28;20510;-79
2023/03/06 03:24:58;;;;;;;11.53;5.40;;;;;;;;;;5050930;28;20017;-79
2023/03/06 03:27:24;;;;;;;13.00;5.10;;;;;;;;;;5053084;28;20048;-79
2023/03/06 03:29:49;;;;;;;9.13;4.73;;;;;;;;;;5052608;28;20021;-78
2023/03/06 03:32:15;;;;;;;15.83;5.03;;;;;;;;;;5051338;28;20029;-79
2023/03/06 03:34:40;;;;;;;12.10;5.77;;;;;;;;;;5044894;28;20033;-79
2023/03/06 03:37:06;;;;;;;18.60;5.97;;;;;;;;;;5033002;28;20033;-79
2023/03/06 03:39:32;;;;;;;12.27;4.63;;;;;;;;;;5032408;28;20054;-78
2023/03/06 03:41:57;;;;;;;9.03;4.40;;;;;;;;;;5031745;28;20076;-78
2023/03/06 03:44:23;;;;;;;14.50;4.90;;;;;;;;;;5032319;28;20099;-77
2023/03/06 03:46:48;;;;;;;11.33;5.77;;;;;;;;;;5031566;28;20034;-78
2023/03/06 03:49:14;;;;;;;13.47;6.50;;;;;;;;;;5033167;28;20116;-78
2023/03/06 03:51:40;;;;;;;11.30;4.80;;;;;;;;;;5034230;28;20029;-79
2023/03/06 03:54:05;;;;;;;12.83;4.83;;;;;;;;;;5051133;28;20036;-78
2023/03/06 03:56:32;;;;;;;11.70;5.23;;;;;;;;;;5052906;28;20017;-78
2023/03/06 03:58:57;;;;;;;12.60;5.27;;;;;;;;;;5051650;28;20036;-79
2023/03/06 04:01:23;;;;;;;11.80;6.17;;;;;;;;;;5052544;28;20037;-77
2023/03/06 04:03:49;;;;;;;11.80;5.00;;;;;;;;;;5050179;28;20119;-77
2023/03/06 04:06:14;;;;;;;13.67;5.40;;;;;;;;;;5052183;28;20068;-79
2023/03/06 04:08:40;;;;;;;15.17;5.67;;;;;;;;;;5051658;28;20120;-78
2023/03/06 04:11:05;;;;;;;20.07;5.70;;;;;;;;;;5051980;28;20043;-78
2023/03/06 04:13:31;;;;;;;14.03;5.53;;;;;;;;;;5052181;28;20474;-78
2023/03/06 04:15:58;;;;;;;14.60;5.30;;;;;;;;;;5050278;28;20029;-78
2023/03/06 04:18:24;;;;;;;12.83;5.20;;;;;;;;;;5052490;28;20074;-78
2023/03/06 04:20:50;;;;;;;15.70;6.50;;;;;;;;;;5037541;28;20052;-79
2023/03/06 04:23:17;;;;;;;15.37;5.93;;;;;;;;;;5032493;28;20026;-78
2023/03/06 04:25:42;;;;;;;12.47;4.93;;;;;;;;;;5032125;28;20048;-77
2023/03/06 04:28:08;;;;;;;15.33;5.47;;;;;;;;;;5032437;28;20040;-78
2023/03/06 04:30:34;;;;;;;15.77;4.97;;;;;;;;;;5030707;28;20036;-78
2023/03/06 04:32:59;;;;;;;13.03;5.63;;;;;;;;;;5032467;28;20116;-77
2023/03/06 04:35:25;;;;;;;14.70;5.50;;;;;;;;;;5041912;28;20434;-80
2023/03/06 04:37:51;;;;;;;10.27;5.53;;;;;;;;;;5050164;28;20107;-78
2023/03/06 04:40:23;;;;;;;13.63;4.37;;;;;;;;;;5038278;28;20129;-78
2023/03/06 04:42:49;;;;;;;19.33;5.90;;;;;;;;;;5031201;28;20501;-80
2023/03/06 04:45:15;;;;;;;10.83;5.80;;;;;;;;;;5014949;28;20073;-79
2023/03/06 04:47:41;;;;;;;13.93;6.33;;;;;;;;;;5024329;28;20036;-78
2023/03/06 04:50:07;;;;;;;17.93;6.33;;;;;;;;;;5016414;28;20018;-79
2023/03/06 04:52:33;;;;;;;15.43;5.33;;;;;;;;;;5019812;28;20044;-79
2023/03/06 04:54:58;;;;;;;11.73;6.53;;;;;;;;;;5019795;28;20115;-79
2023/03/06 04:57:24;;;;;;;19.80;7.10;;;;;;;;;;5031616;28;20033;-79
2023/03/06 04:59:50;;;;;;;19.27;6.27;;;;;;;;;;5035154;28;20026;-79
2023/03/06 05:02:17;;;;;;;13.40;6.37;;;;;;;;;;5051341;28;20025;-79
2023/03/06 05:04:42;;;;;;;16.80;6.63;;;;;;;;;;5051118;28;20056;-79
2023/03/06 05:07:09;;;;;;;17.00;6.30;;;;;;;;;;5051316;28;20440;-78
2023/03/06 05:09:35;;;;;;;14.00;6.23;;;;;;;;;;5050464;28;20029;-80
2023/03/06 05:12:02;;;;;;;17.63;8.20;;;;;;;;;;5030082;28;20017;-78
2023/03/06 05:14:30;;;;;;;16.57;7.20;;;;;;;;;;5030973;28;20037;-81
2023/03/06 05:16:56;;;;;;;14.03;6.30;;;;;;;;;;5030594;28;20029;-79
2023/03/06 05:19:22;;;;;;;19.10;6.90;;;;;;;;;;5031253;28;20048;-79
2023/03/06 05:21:47;;;;;;;17.27;6.43;;;;;;;;;;5030334;28;20033;-79
2023/03/06 05:24:13;;;;;;;15.13;6.57;;;;;;;;;;5031758;28;20095;-79
2023/03/06 05:26:38;;;;;;;15.50;6.80;;;;;;;;;;5029661;28;20041;-78
2023/03/06 05:29:04;;;;;;;19.43;7.23;;;;;;;;;;5031586;28;20035;-80
2023/03/06 05:31:29;;;;;;;17.73;7.07;;;;;;;;;;5026698;28;20476;-79
2023/03/06 05:33:56;;;;;;;15.63;5.83;;;;;;;;;;5015849;28;20029;-79
2023/03/06 05:36:22;;;;;;;18.70;6.07;;;;;;;;;;5028320;28;20481;-77
2023/03/06 05:38:47;;;;;;;13.47;6.27;;;;;;;;;;5027979;28;20017;-78
2023/03/06 05:41:13;;;;;;;18.47;6.23;;;;;;;;;;5030164;28;20515;-80
2023/03/06 05:43:39;;;;;;;28.80;7.53;;;;;;;;;;5034547;28;20078;-80
2023/03/06 05:46:05;;;;;;;17.60;7.00;;;;;;;;;;5030387;28;20040;-79
2023/03/06 05:48:33;;;;;;;15.10;6.43;;;;;;;;;;5030897;28;20037;-79
2023/03/06 05:51:00;;;;;;;18.07;7.00;;;;;;;;;;5029960;28;20025;-78
2023/03/06 05:53:28;;;;;;;18.37;6.33;;;;;;;;;;5022777;28;20037;-79
2023/03/06 05:56:04;;;;;;;23.00;7.10;;;;;;;;;;5032035;28;20488;-81
2023/03/06 05:58:31;;;;;;;17.67;6.40;;;;;;;;;;5042874;28;20385;-79
2023/03/06 06:00:57;;;;;;;24.20;7.63;;;;;;;;;;5036974;28;20030;-79
2023/03/06 06:03:23;;;;;;;20.10;7.40;;;;;;;;;;5028605;28;20451;-78
2023/03/06 06:05:49;;;;;;;22.87;8.67;;;;;;;;;;5032921;28;20022;-79
2023/03/06 06:08:15;;;;;;;16.13;6.67;;;;;;;;;;5035860;28;20029;-80
2023/03/06 06:10:40;;;;;;;23.23;7.80;;;;;;;;;;5033604;28;20033;-79
2023/03/06 06:13:06;;;;;;;66.03;22.33;;;;;;;;;;5031549;28;20481;-79
2023/03/06 06:15:32;;;;;;;21.40;8.37;;;;;;;;;;5033899;28;20028;-78
2023/03/06 06:17:58;;;;;;;18.00;7.37;;;;;;;;;;5040805;28;20385;-79
2023/03/06 06:20:24;;;;;;;22.60;7.30;;;;;;;;;;5030553;28;20030;-79
2023/03/06 06:22:50;;;;;;;23.53;7.23;;;;;;;;;;5031088;28;20037;-79
2023/03/06 06:25:16;;;;;;;22.90;8.07;;;;;;;;;;5023600;28;20121;-77
2023/03/06 06:27:41;;;;;;;22.63;6.77;;;;;;;;;;5034549;28;20029;-81
2023/03/06 06:30:11;;;;;;;22.57;6.20;;;;;;;;;;5036976;28;20302;-81
2023/03/06 06:32:37;;;;;;;24.87;9.57;;;;;;;;;;5033457;28;20057;-83
2023/03/06 06:35:03;;;;;;;25.23;7.53;;;;;;;;;;5032721;28;20618;-80
2023/03/06 06:37:29;;;;;;;19.83;6.70;;;;;;;;;;5029266;28;20461;-81
2023/03/06 06:39:55;;;;;;;33.00;11.00;;;;;;;;;;5033148;28;20041;-81
2023/03/06 06:42:21;;;;;;;17.73;7.10;;;;;;;;;;5028384;28;20041;-80
2023/03/06 06:44:47;;;;;;;18.13;6.77;;;;;;;;;;5041069;28;20615;-82
2023/03/06 06:47:12;;;;;;;19.43;8.03;;;;;;;;;;5035823;28;20051;-80
2023/03/06 06:49:39;;;;;;;28.17;7.57;;;;;;;;;;5028794;28;20084;-81
2023/03/06 06:52:05;;;;;;;21.43;6.23;;;;;;;;;;5021187;28;20497;-80
2023/03/06 06:54:32;;;;;;;20.00;7.17;;;;;;;;;;5030683;28;20037;-81
2023/03/06 06:56:58;;;;;;;21.93;9.33;;;;;;;;;;5024659;28;20116;-81
2023/03/06 06:59:24;;;;;;;18.70;8.50;;;;;;;;;;5032980;28;20145;-81
2023/03/06 07:01:50;;;;;;;19.53;7.77;;;;;;;;;;5030487;28;20036;-79
2023/03/06 07:04:16;;;;;;;23.37;8.23;;;;;;;;;;5035261;28;20034;-83
2023/03/06 07:06:42;;;;;;;17.73;7.50;;;;;;;;;;5036279;28;20092;-81
2023/03/06 07:09:08;;;;;;;26.87;8.43;;;;;;;;;;5031509;28;20151;-81
2023/03/06 07:11:35;;;;;;;15.87;7.80;;;;;;;;;;5031712;28;20446;-79
2023/03/06 07:14:01;;;;;;;18.37;7.53;;;;;;;;;;5031842;28;20036;-81
2023/03/06 07:16:26;;;;;;;21.50;8.23;;;;;;;;;;5032338;28;20107;-80
2023/03/06 07:18:52;;;;;;;21.63;8.63;;;;;;;;;;5001199;28;20037;-80
2023/03/06 07:21:18;;;;;;;30.13;9.87;;;;;;;;;;5027146;28;20041;-77
2023/03/06 07:23:43;;;;;;;25.83;8.87;;;;;;;;;;5026051;28;20043;-79
2023/03/06 07:26:09;;;;;;;20.17;9.23;;;;;;;;;;5030269;28;20033;-81
2023/03/06 07:28:35;;;;;;;27.97;9.00;;;;;;;;;;5032554;28;20048;-80
2023/03/06 07:31:01;;;;;;;15.33;7.43;;;;;;;;;;5007677;28;20025;-80
2023/03/06 07:33:27;;;;;;;21.50;8.67;;;;;;;;;;5026407;28;20041;-80
2023/03/06 07:35:54;;;;;;;19.23;7.23;;;;;;;;;;5027701;28;20048;-81
2023/03/06 07:38:20;;;;;;;25.03;8.43;;;;;;;;;;5032782;28;20370;-80
2023/03/06 07:40:50;;;;;;;22.57;8.40;;;;;;;;;;5029849;28;20044;-81
2023/03/06 07:43:18;;;;;;;20.50;8.57;;;;;;;;;;5031474;28;20029;-79
2023/03/06 07:46:01;;;;;;;25.93;9.20;;;;;;;;;;5032565;28;20037;-80
2023/03/06 07:48:26;;;;;;;;;;;;;;;;;;5032741;28;20029;-81
2023/03/06 07:51:32;;;;;;;21.40;7.47;;;;;;;;;;5030734;28;20087;-80
2023/03/06 07:53:57;;;;;;;19.97;8.13;;;;;;;;;;5024781;28;20454;-78
2023/03/06 07:56:23;;;;;;;24.10;8.60;;;;;;;;;;5017631;28;20037;-78
2023/03/06 07:58:48;;;;;;;31.20;8.17;;;;;;;;;;5018841;28;20024;-80
2023/03/06 08:01:18;;;;;;;22.43;8.50;;;;;;;;;;5029681;28;20064;-80
2023/03/06 08:03:49;;;;;;;27.20;9.27;;;;;;;;;;5025651;28;20500;-79
2023/03/06 08:06:21;;;;;;;20.77;7.77;;;;;;;;;;5027709;28;20029;-81
2023/03/06 08:08:47;;;;;;;20.23;7.75;;;;;;;;;;5025527;28;20567;-79
2023/03/06 08:11:17;;;;;;;23.90;9.23;;;;;;;;;;5022646;28;20067;-77
2023/03/06 08:13:43;;;;;;;22.80;9.13;;;;;;;;;;5021148;28;20078;-79
2023/03/06 08:16:22;;;;;;;20.17;8.47;;;;;;;;;;5020497;28;20037;-78
2023/03/06 08:18:48;;;;;;;26.13;10.17;;;;;;;;;;5027395;28;20071;-78
2023/03/06 08:21:16;;;;;;;24.30;9.27;;;;;;;;;;5015496;28;20420;-81
2023/03/06 08:23:42;;;;;;;27.03;9.20;;;;;;;;;;5029630;28;20056;-80
2023/03/06 08:26:15;;;;;;;25.60;8.77;;;;;;;;;;5024406;28;20199;-78
2023/03/06 08:28:40;;;;;;;;;;;;;;;;;;5028210;28;20071;-79
2023/03/06 08:31:18;;;;;;;25.13;8.27;;;;;;;;;;5029181;28;19925;-81
2023/03/06 08:33:44;;;;;;;22.00;7.97;;;;;;;;;;5022913;28;20101;-81
2023/03/06 08:36:09;;;;;;;21.73;7.97;;;;;;;;;;5027766;28;20029;-80
2023/03/06 08:38:35;;;;;;;23.37;8.60;;;;;;;;;;5027052;28;20110;-78
2023/03/06 08:41:00;;;;;;;19.27;8.40;;;;;;;;;;5020060;28;20604;-79
2023/03/06 08:43:26;;;;;;;25.00;9.53;;;;;;;;;;5027828;28;20393;-78
2023/03/06 08:45:56;;;;;;;22.90;8.83;;;;;;;;;;5024662;28;20125;-79
2023/03/06 08:48:22;;;;;;;24.40;9.63;;;;;;;;;;5024618;28;20130;-79
2023/03/06 08:50:48;;;;;;;23.73;9.03;;;;;;;;;;5004406;28;20848;-80
2023/03/06 08:53:13;;;;;;;20.47;8.53;;;;;;;;;;5002093;28;20403;-84
2023/03/06 08:55:39;;;;;;;17.93;8.40;;;;;;;;;;5006386;28;20026;-82
2023/03/06 08:58:05;;;;;;;18.43;7.70;;;;;;;;;;5004276;28;20034;-80
2023/03/06 09:00:34;;;;;;;19.40;7.93;;;;;;;;;;5003759;28;20033;-78
2023/03/06 09:03:00;;;;;;;19.83;7.40;;;;;;;;;;5004235;28;20726;-77
2023/03/06 09:05:26;;;;;;;18.23;7.53;;;;;;;;;;5001714;28;20010;-79
2023/03/06 09:07:52;;;;;;;20.33;8.47;;;;;;;;;;5001347;28;20112;-77
2023/03/06 09:10:23;;;;;;;18.93;7.70;;;;;;;;;;4999145;28;20058;-78
2023/03/06 09:12:49;;;;;;;14.23;7.37;;;;;;;;;;5000315;28;20026;-78
2023/03/06 09:15:15;;;;;;;21.90;7.70;;;;;;;;;;5004030;28;20755;-79
2023/03/06 09:17:41;;;;;;;15.43;7.00;;;;;;;;;;5004209;28;20022;-76
2023/03/06 09:20:09;;;;;;;17.93;7.83;;;;;;;;;;5000856;28;20132;-78
2023/03/06 09:22:35;;;;;;;27.50;10.17;;;;;;;;;;5000466;28;20026;-77
2023/03/06 09:25:02;;;;;;;17.37;7.30;;;;;;;;;;5002421;28;20065;-80
2023/03/06 09:27:28;;;;;;;15.90;7.47;;;;;;;;;;5001660;28;20034;-78
2023/03/06 09:29:54;;;;;;;25.30;8.33;;;;;;;;;;5001875;28;20091;-78
2023/03/06 09:32:22;;;;;;;18.10;7.33;;;;;;;;;;5001537;28;20710;-76
2023/03/06 09:34:48;;;;;;;16.60;7.93;;;;;;;;;;4999648;28;20140;-78
2023/03/06 09:37:14;;;;;;;18.30;7.10;;;;;;;;;;4997250;28;20415;-77
2023/03/06 09:39:40;;;;;;;16.77;7.33;;;;;;;;;;5003755;28;20045;-77
2023/03/06 09:42:07;;;;;;;16.97;7.20;;;;;;;;;;4999219;28;20057;-77
2023/03/06 09:44:36;;;;;;;13.17;6.57;;;;;;;;;;4999509;28;20366;-77
2023/03/06 09:47:20;;;;;;;19.57;7.77;;;;;;;;;;5002980;28;20132;-78
2023/03/06 09:50:08;;;;;;;26.37;7.90;;;;;;;;;;5003228;28;20108;-79
2023/03/06 09:53:11;;;;;;;19.23;8.00;;;;;;;;;;4993696;28;20421;-80
2023/03/06 09:55:39;;;;;;;15.68;6.65;;;;;;;;;;4999660;28;20026;-79
2023/03/06 09:58:20;;;;;;;14.03;5.30;;;;;;;;;;5000495;28;20053;-81
2023/03/06 10:01:01;;;;;;;16.80;6.77;;;;;;;;;;4987320;28;20056;-79
2023/03/06 10:03:45;;;;;;;15.57;7.23;;;;;;;;;;5003442;28;20030;-78
2023/03/06 10:06:17;;;;;;;17.70;6.00;;;;;;;;;;5004643;28;20030;-79
2023/03/06 10:08:57;;;;;;;13.23;5.22;;;;;;;;;;5002637;28;20029;-79
2023/03/06 10:11:45;;;;;;;15.57;7.00;;;;;;;;;;5005163;28;20033;-80
2023/03/06 10:14:15;;;;;;;20.57;6.67;;;;;;;;;;4997659;28;20018;-80
2023/03/06 10:16:42;;;;;;;14.47;6.73;;;;;;;;;;5003544;28;20050;-81
2023/03/06 10:19:18;;;;;;;16.30;7.10;;;;;;;;;;5005018;28;20537;-78
2023/03/06 10:22:02;;;;;;;15.40;7.00;;;;;;;;;;4993215;28;20045;-79
2023/03/06 10:25:09;;;;;;;13.87;6.10;;;;;;;;;;5004608;28;20033;-78
2023/03/06 10:27:49;;;;;;;15.13;6.10;;;;;;;;;;4967750;28;20105;-81
2023/03/06 10:30:39;;;;;;;15.87;6.47;;;;;;;;;;4982332;28;20031;-81
2023/03/06 10:33:27;;;;;;;14.37;6.00;;;;;;;;;;4994332;28;20038;-79
2023/03/06 10:35:55;;;;;;;20.07;5.40;;;;;;;;;;5001676;28;20029;-79
2023/03/06 10:38:37;;;;;;;13.33;4.73;;;;;;;;;;4986229;28;20065;-81
2023/03/06 10:41:12;;;;;;;12.83;5.60;;;;;;;;;;5002391;28;20100;-78
2023/03/06 10:44:05;;;;;;;17.27;6.40;;;;;;;;;;5003765;28;20030;-79
2023/03/06 10:46:46;;;;;;;22.27;7.57;;;;;;;;;;5017353;28;20057;-79
2023/03/06 10:49:20;;;;;;;12.93;6.27;;;;;;;;;;5000215;28;20037;-78
2023/03/06 10:51:56;;;;;;;13.43;6.20;;;;;;;;;;4984719;28;20140;-82
2023/03/06 10:54:22;;;;;;;16.87;6.83;;;;;;;;;;5003900;28;20018;-78
2023/03/06 10:56:47;;;;;;;20.17;6.60;;;;;;;;;;5001809;28;20041;-78
2023/03/06 10:59:19;;;;;;;15.20;7.07;;;;;;;;;;5007815;28;20433;-80
2023/03/06 11:01:47;;;;;;;19.50;7.40;;;;;;;;;;5007060;28;20057;-79
2023/03/06 11:04:28;;;;;;;18.40;6.33;;;;;;;;;;5006772;28;20037;-79
2023/03/06 11:07:20;;;;;;;13.60;6.33;;;;;;;;;;5003887;28;20209;-77
2023/03/06 11:09:57;;;;;;;13.48;6.95;;;;;;;;;;5007660;28;20034;-78
2023/03/06 11:12:27;;;;;;;13.10;5.87;;;;;;;;;;5008199;28;20044;-79
2023/03/06 11:15:17;;;;;;;15.63;6.40;;;;;;;;;;5007409;28;20517;-81
2023/03/06 11:18:18;;;;;;;17.10;6.97;;;;;;;;;;5006680;28;20033;-81
2023/03/06 11:20:53;;;;;;;15.07;6.00;;;;;;;;;;5004169;28;20324;-80
2023/03/06 11:23:36;;;;;;;16.17;7.30;;;;;;;;;;4999584;28;20286;-79
2023/03/06 11:26:14;;;;;;;10.07;5.53;;;;;;;;;;5003623;28;20041;-79
2023/03/06 11:28:57;;;;;;;16.47;6.10;;;;;;;;;;4996926;28;20117;-80
2023/03/06 11:31:28;;;;;;;12.93;6.50;;;;;;;;;;5018055;28;20053;-81
2023/03/06 11:34:03;;;;;;;15.63;7.23;;;;;;;;;;5000594;28;20058;-81
2023/03/06 11:36:53;;;;;;;18.40;6.77;;;;;;;;;;5005390;28;20099;-78
2023/03/06 11:39:32;;;;;;;14.63;6.73;;;;;;;;;;5005485;28;20057;-78
2023/03/06 11:42:16;;;;;;;13.10;6.53;;;;;;;;;;5002298;28;20042;-80
2023/03/06 11:45:22;;;;;;;17.03;6.67;;;;;;;;;;4994196;28;20120;-79
2023/03/06 11:47:51;;;;;;;15.13;6.33;;;;;;;;;;4995931;28;20151;-77
2023/03/06 11:50:29;;;;;;;16.20;7.23;;;;;;;;;;4997137;28;20048;-77
2023/03/06 11:53:01;;;;;;;15.97;7.23;;;;;;;;;;4987058;28;20101;-78
2023/03/06 11:55:53;;;;;;;14.38;6.97;;;;;;;;;;5005197;28;20029;-79
2023/03/06 11:59:00;;;;;;;13.73;6.70;;;;;;;;;;4998298;28;20048;-77
2023/03/06 12:01:46;;;;;;;14.13;6.87;;;;;;;;;;4989860;28;20501;-79
2023/03/06 12:04:51;;;;;;;13.90;7.73;;;;;;;;;;5004189;28;20101;-81
2023/03/06 12:07:31;;;;;;;14.53;6.10;;;;;;;;;;5001996;28;20030;-81
2023/03/06 12:10:17;;;;;;;13.57;6.27;;;;;;;;;;5000927;28;20033;-79
2023/03/06 12:13:11;;;;;;;12.23;6.17;;;;;;;;;;5000958;28;20045;-77
2023/03/06 12:15:56;;;;;;;16.67;6.50;;;;;;;;;;4995143;28;20032;-76
2023/03/06 12:18:34;;;;;;;14.27;7.20;;;;;;;;;;5000235;28;20255;-78
2023/03/06 12:21:09;;;;;;;19.63;7.37;;;;;;;;;;4998458;28;20026;-78
2023/03/06 12:24:00;;;;;;;13.30;6.97;;;;;;;;;;5003432;28;20030;-80
2023/03/06 12:26:41;;;;;;;20.00;7.90;;;;;;;;;;5007699;28;20439;-80
2023/03/06 12:30:09;;;;;;;11.73;6.55;;;;;;;;;;5000123;28;20057;-79
2023/03/06 12:33:29;;;;;;;13.33;6.33;;;;;;;;;;4998090;28;20150;-79
2023/03/06 12:36:03;;;;;;;14.93;6.23;;;;;;;;;;4943629;28;20058;-80
2023/03/06 12:38:45;;;;;;;16.63;5.93;;;;;;;;;;4990156;28;20092;-78
2023/03/06 12:41:26;;;;;;;12.63;6.25;;;;;;;;;;5001550;28;20360;-79
2023/03/06 12:44:10;;;;;;;13.63;6.50;;;;;;;;;;5000858;28;20026;-79
2023/03/06 12:46:46;;;;;;;11.90;5.63;;;;;;;;;;5002356;28;20050;-78
2023/03/06 12:49:23;;;;;;;16.07;5.13;;;;;;;;;;5003835;28;20061;-80
2023/03/06 12:51:50;;;;;;;15.00;6.13;;;;;;;;;;4993314;28;20049;-79
2023/03/06 12:54:22;;;;;;;11.97;5.73;;;;;;;;;;4999391;28;20091;-80
2023/03/06 12:56:49;;;;;;;15.18;6.82;;;;;;;;;;5002017;28;20080;-81
2023/03/06 12:59:33;;;;;;;11.70;6.47;;;;;;;;;;5001529;28;20368;-80
2023/03/06 13:02:26;;;;;;;9.93;5.57;;;;;;;;;;5004730;28;20552;-79
2023/03/06 13:05:21;;;;;;;12.10;5.83;;;;;;;;;;4997812;28;20029;-79
2023/03/06 13:08:22;;;;;;;12.33;4.90;;;;;;;;;;5003625;28;20413;-81
2023/03/06 13:11:13;;;;;;;12.93;6.30;;;;;;;;;;5002895;28;20041;-78
2023/03/06 13:13:57;;;;;;;11.97;5.60;;;;;;;;;;5005608;28;20185;-82
2023/03/06 13:16:33;;;;;;;12.57;5.83;;;;;;;;;;5003373;28;20521;-78
2023/03/06 13:19:22;;;;;;;12.23;6.87;;;;;;;;;;5002398;28;20034;-80
2023/03/06 13:21:53;;;;;;;13.73;5.43;;;;;;;;;;5005108;28;20516;-79
2023/03/06 13:24:32;;;;;;;12.93;5.85;;;;;;;;;;5003355;28;20630;-79
2023/03/06 13:27:02;;;;;;;16.03;6.63;;;;;;;;;;4999030;28;20061;-77
2023/03/06 13:29:37;;;;;;;12.53;5.60;;;;;;;;;;5002242;28;20030;-79
2023/03/06 13:32:02;;;;;;;14.23;6.10;;;;;;;;;;4999115;28;20120;-78
2023/03/06 13:34:33;;;;;;;17.97;6.93;;;;;;;;;;5001398;28;20113;-78
2023/03/06 13:37:18;;;;;;;12.33;6.37;;;;;;;;;;4998044;28;20078;-78
2023/03/06 13:39:57;;;;;;;16.00;5.90;;;;;;;;;;5000643;28;20053;-79
2023/03/06 13:42:55;;;;;;;13.00;6.03;;;;;;;;;;5000612;28;20030;-80
2023/03/06 13:45:42;;;;;;;10.80;5.50;;;;;;;;;;5001359;28;20060;-80
2023/03/06 13:48:29;;;;;;;14.00;6.57;;;;;;;;;;5002299;28;20085;-80
2023/03/06 13:51:17;;;;;;;11.23;6.13;;;;;;;;;;4996703;28;20053;-77
2023/03/06 13:54:08;;;;;;;13.50;6.30;;;;;;;;;;5001196;28;20061;-76
2023/03/06 13:57:12;;;;;;;15.63;6.87;;;;;;;;;;5001560;28;20030;-80
2023/03/06 14:00:04;;;;;;;14.07;6.90;;;;;;;;;;5003597;28;20468;-79
2023/03/06 14:03:15;;;;;;;14.97;7.47;;;;;;;;;;5001295;28;20458;-77
2023/03/06 14:05:44;;;;;;;13.53;6.33;;;;;;;;;;5008933;28;20044;-78
2023/03/06 14:08:15;;;;;;;11.93;6.63;;;;;;;;;;5000594;28;20033;-83
2023/03/06 14:10:43;;;;;;;11.93;5.95;;;;;;;;;;5004115;28;20229;-80
2023/03/06 14:13:22;;;;;;;12.10;5.93;;;;;;;;;;4987921;28;20042;-77
2023/03/06 14:15:53;;;;;;;12.37;5.97;;;;;;;;;;5006053;28;20026;-78
2023/03/06 14:18:28;;;;;;;13.18;6.57;;;;;;;;;;4988933;28;20378;-80
2023/03/06 14:21:25;;;;;;;15.03;6.13;;;;;;;;;;5003604;28;20034;-80
2023/03/06 14:24:02;;;;;;;11.47;6.00;;;;;;;;;;5004475;28;20026;-79
2023/03/06 14:26:33;;;;;;;10.20;5.30;;;;;;;;;;5006181;28;20494;-79
2023/03/06 14:29:02;;;;;;;10.67;5.30;;;;;;;;;;5005830;28;20022;-76
2023/03/06 14:31:40;;;;;;;10.53;4.87;;;;;;;;;;5009681;28;20057;-78
2023/03/06 14:34:13;;;;;;;14.23;4.97;;;;;;;;;;5009934;28;20036;-81
2023/03/06 14:36:57;;;;;;;9.83;5.00;;;;;;;;;;5008317;28;20156;-78
2023/03/06 14:39:38;;;;;;;13.00;4.80;;;;;;;;;;5005951;28;20056;-76
2023/03/06 14:42:24;;;;;;;12.30;5.53;;;;;;;;;;5008967;28;20037;-78
2023/03/06 14:45:01;;;;;;;7.73;4.60;;;;;;;;;;5004343;28;20033;-80
2023/03/06 14:47:30;;;;;;;9.77;5.07;;;;;;;;;;5008888;28;20511;-78
2023/03/06 14:50:21;;;;;;;11.67;5.23;;;;;;;;;;5010373;28;20517;-80
2023/03/06 14:52:54;;;;;;;11.88;5.68;;;;;;;;;;4997515;28;20567;-77
2023/03/06 14:55:23;;;;;;;10.60;5.23;;;;;;;;;;5010775;28;20041;-79
2023/03/06 14:57:57;;;;;;;20.80;6.17;;;;;;;;;;5005992;28;20056;-78
2023/03/06 15:00:37;;;;;;;14.60;5.77;;;;;;;;;;5012073;28;20026;-80